Bookmark and Share
Track history (hours):
 

Excellence

More information available from US FCC via Universal Licensing System and Coast Guard Vessel Documentation Center.

Last reported at 2014-Apr-05 05:25 UTC. Time now 2014-Apr-23 07:09 UTC.
Position N 47°38' W 122°23'.
Warning: this ship's position is 18 days out of date.

Length 112 m; draft 7 m.

Type: Fishing. MMSI: 338162000.

NotesDate/timePositionNaut miles runAvg speedWind from/ knotsBaromVisibWave heightAir tempDewpointWater temp
2014-Apr-05 05:25N 47°38' W 122°23'0 0.0
2014-Apr-05 04:33N 47°38' W 122°23'0 0.0
2014-Apr-05 03:33N 47°38' W 122°23'0 0.0
2014-Apr-05 02:33N 47°38' W 122°23'0 0.0
2014-Apr-05 01:33N 47°38' W 122°23'0 0.0
2014-Apr-05 00:33N 47°38' W 122°23'0 0.0
2014-Apr-04 23:33N 47°38' W 122°23'0 0.0
2014-Apr-04 22:33N 47°38' W 122°23'0 0.0
2014-Apr-04 21:33N 47°38' W 122°23'0 0.0
2014-Apr-04 20:33N 47°38' W 122°23'0 0.0
2014-Apr-04 19:33N 47°38' W 122°23'0 0.0
2014-Apr-04 18:33N 47°38' W 122°23'0 0.0
2014-Apr-04 17:31N 47°38' W 122°23'0 0.0
2014-Apr-04 16:33N 47°38' W 122°23'0 0.0
2014-Apr-04 15:33N 47°38' W 122°23'0 0.0
2014-Apr-04 14:33N 47°38' W 122°23'0 0.0
2014-Apr-04 13:33N 47°38' W 122°23'0 0.0
2014-Apr-04 12:33N 47°38' W 122°23'0 0.0
2014-Apr-04 11:33N 47°38' W 122°23'0 0.0
2014-Apr-04 10:33N 47°38' W 122°23'0 0.0
2014-Apr-04 09:33N 47°38' W 122°23'0 0.0
2014-Apr-04 08:33N 47°38' W 122°23'0 0.0
2014-Apr-04 07:33N 47°38' W 122°23'0 0.0
2014-Apr-04 06:33N 47°38' W 122°23'0 0.0
2014-Apr-04 05:33N 47°38' W 122°23'0 0.0
2014-Apr-04 04:33N 47°38' W 122°23'0 0.0
2014-Apr-04 03:33N 47°38' W 122°23'0 0.0
2014-Apr-04 02:33N 47°38' W 122°23'0 0.0
2014-Apr-04 01:33N 47°38' W 122°23'0 0.0
2014-Apr-04 00:33N 47°38' W 122°23'0 0.0
2014-Apr-03 23:33N 47°38' W 122°23'0 0.0
2014-Apr-03 22:33N 47°38' W 122°23'0 0.0
2014-Apr-03 21:32N 47°38' W 122°23'0 0.0
2014-Apr-03 20:32N 47°38' W 122°23'0 0.0
2014-Apr-03 19:33N 47°38' W 122°23'0 0.0
2014-Apr-03 18:33N 47°38' W 122°23'0 0.0
2014-Apr-03 17:33N 47°38' W 122°23'0 0.0
2014-Apr-03 16:33N 47°38' W 122°23'0 0.0
2014-Apr-03 15:33N 47°38' W 122°23'0 0.0
2014-Apr-03 14:33N 47°38' W 122°23'0 0.0
2014-Apr-03 13:33N 47°38' W 122°23'0 0.0
2014-Apr-03 12:33N 47°38' W 122°23'0 0.0
2014-Apr-03 11:34N 47°38' W 122°23'0 0.0
2014-Apr-03 10:33N 47°38' W 122°23'0 0.0
2014-Apr-03 09:34N 47°38' W 122°23'0 0.0
2014-Apr-03 08:33N 47°38' W 122°23'0 0.0
2014-Apr-03 07:33N 47°38' W 122°23'0 0.0
2014-Apr-03 06:33N 47°38' W 122°23'0 0.0
2014-Apr-03 05:33N 47°38' W 122°23'0 0.0
2014-Apr-03 04:33N 47°38' W 122°23'0 0.0
2014-Apr-03 03:33N 47°38' W 122°23'0 0.0
2014-Apr-03 02:33N 47°38' W 122°23'0 0.0
2014-Apr-03 01:33N 47°38' W 122°23'0 0.0
2014-Apr-03 00:33N 47°38' W 122°23'0 0.0
2014-Apr-02 23:33N 47°38' W 122°23'0 0.0
2014-Apr-02 22:33N 47°38' W 122°23'0 0.0
2014-Apr-02 21:33N 47°38' W 122°23'0 0.0
2014-Apr-02 20:33N 47°38' W 122°23'0 0.0
2014-Apr-02 19:33N 47°38' W 122°23'0 0.0
2014-Apr-02 18:33N 47°38' W 122°23'0 0.0
2014-Apr-02 17:33N 47°38' W 122°23'0 0.0
2014-Apr-02 16:32N 47°38' W 122°23'0 0.0
2014-Apr-02 15:33N 47°38' W 122°23'0 0.0
2014-Apr-02 14:33N 47°38' W 122°23'0 0.0
2014-Apr-02 13:33N 47°38' W 122°23'3 3.0
2014-Apr-02 12:34N 47°37' W 122°27'7 6.8
2014-Apr-02 11:33N 47°44' W 122°27'7 6.8
2014-Apr-02 10:33N 47°51' W 122°29'9 8.5
2014-Apr-02 09:33N 47°58' W 122°36'8 8.2
2014-Apr-02 08:33N 48°05' W 122°40'9 8.6
2014-Apr-02 07:33N 48°11' W 122°50'1211.6
2014-Apr-02 06:33N 48°12' W 123°07'1212.2
2014-Apr-02 05:33N 48°13' W 123°26'1212.3
2014-Apr-02 04:34N 48°14' W 123°44'1513.2
2014-Apr-02 03:24N 48°17' W 124°07'1813.9
2014-Apr-02 02:06N 48°24' W 124°31'814.2
2014-Apr-02 01:32N 48°28' W 124°42'1313.0
2014-Apr-02 00:31N 48°29' W 125°02'1212.4
2014-Apr-01 23:31N 48°31' W 125°20'1212.2
2014-Apr-01 22:33N 48°33' W 125°38'1110.6
2014-Apr-01 21:33N 48°36' W 125°53'1312.6
2014-Apr-01 20:33N 48°39' W 126°12'1312.8
2014-Apr-01 19:33N 48°42' W 126°30'  

Dump ship's entire track history

sailing weather and tide predictions

Excellence — KTDP — position and weather